Time;durP1;ratioP1;P1;durP2;ratioP2;P2;SDS_P1;SDS_P2;PMS_P1;PMS_P2;Temp;Humidity;BMP_temperature;BMP_pressure;BME280_temperature;BME280_humidity;BME280_pressure;Samples;Min_cycle;Max_cycle;Signal;HPM_P1;HPM_P2
2021/04/16 00:00:23;;;;;;;7.67;5.73;;;2.90;99.90;;;;;;5032292;28;20176;-63
2021/04/16 00:02:48;;;;;;;11.63;7.17;;;2.80;99.90;;;;;;5032339;28;20175;-63
2021/04/16 00:05:15;;;;;;;8.87;5.60;;;2.70;99.90;;;;;;5032334;28;20241;-63
2021/04/16 00:07:41;;;;;;;5.80;5.23;;;2.70;99.90;;;;;;5032528;28;20186;-64
2021/04/16 00:10:11;;;;;;;5.90;5.30;;;2.70;99.90;;;;;;5031881;28;20183;-64
2021/04/16 00:12:37;;;;;;;8.83;5.70;;;2.60;99.90;;;;;;5032506;28;20176;-63
2021/04/16 00:15:11;;;;;;;6.47;5.33;;;2.60;99.90;;;;;;5032356;28;20194;-64
2021/04/16 00:17:37;;;;;;;7.27;5.03;;;2.60;99.90;;;;;;5032452;28;20305;-63
2021/04/16 00:20:06;;;;;;;8.83;5.23;;;2.60;99.90;;;;;;5032058;28;20671;-63
2021/04/16 00:22:33;;;;;;;7.27;5.67;;;2.60;99.90;;;;;;5032116;28;20188;-64
2021/04/16 00:24:58;;;;;;;6.37;5.63;;;2.60;99.90;;;;;;5031975;28;20183;-63
2021/04/16 00:27:24;;;;;;;8.63;6.33;;;2.60;99.90;;;;;;5032158;28;20176;-64
2021/04/16 00:29:49;;;;;;;6.93;6.00;;;2.60;99.90;;;;;;5031522;28;20231;-64
2021/04/16 00:32:15;;;;;;;7.37;5.70;;;2.50;99.90;;;;;;5032004;28;20187;-64
2021/04/16 00:34:41;;;;;;;10.20;6.00;;;2.40;99.90;;;;;;5031944;28;20194;-63
2021/04/16 00:37:06;;;;;;;12.73;6.23;;;2.40;99.90;;;;;;5032033;28;20694;-63
2021/04/16 00:39:32;;;;;;;7.07;6.37;;;2.30;99.90;;;;;;5019306;28;20195;-63
2021/04/16 00:41:57;;;;;;;12.17;6.47;;;2.30;99.90;;;;;;5031630;28;20191;-63
2021/04/16 00:44:23;;;;;;;7.83;6.00;;;2.30;99.90;;;;;;5031821;28;20180;-64
2021/04/16 00:47:01;;;;;;;7.30;5.80;;;2.30;99.90;;;;;;5031874;28;20182;-64
2021/04/16 00:49:33;;;;;;;14.17;6.37;;;2.30;99.90;;;;;;5031672;28;20217;-64
2021/04/16 00:52:01;;;;;;;8.67;6.87;;;2.30;99.90;;;;;;5031564;28;20545;-64
2021/04/16 00:54:41;;;;;;;7.70;5.83;;;2.30;99.90;;;;;;5031366;28;20183;-64
2021/04/16 00:57:10;;;;;;;8.80;6.43;;;2.30;99.90;;;;;;5031610;28;20214;-63
2021/04/16 00:59:39;;;;;;;7.20;5.77;;;2.30;99.90;;;;;;5031375;28;20207;-63
2021/04/16 01:02:05;;;;;;;9.03;5.97;;;2.30;99.90;;;;;;5030394;28;20254;-63
2021/04/16 01:04:32;;;;;;;7.13;6.40;;;2.30;99.90;;;;;;5031505;28;20266;-64
2021/04/16 01:06:59;;;;;;;7.20;5.60;;;2.30;99.90;;;;;;5031328;28;20586;-64
2021/04/16 01:09:25;;;;;;;11.40;6.53;;;2.20;99.90;;;;;;5031215;28;20199;-63
2021/04/16 01:11:51;;;;;;;7.50;6.27;;;2.20;99.90;;;;;;5030889;28;20180;-64
2021/04/16 01:14:17;;;;;;;10.57;6.83;;;2.10;99.90;;;;;;5031487;28;20172;-63
2021/04/16 01:16:44;;;;;;;8.77;6.83;;;2.00;99.90;;;;;;5031154;28;20353;-63
2021/04/16 01:19:42;;;;;;;12.97;7.47;;;1.90;99.90;;;;;;5031605;28;20214;-64
2021/04/16 01:22:29;;;;;;;13.43;6.90;;;1.90;99.90;;;;;;5030530;28;20241;-63
2021/04/16 01:24:58;;;;;;;15.00;6.33;;;1.90;99.90;;;;;;5030744;28;20210;-63
2021/04/16 01:27:26;;;;;;;9.07;6.40;;;1.80;99.90;;;;;;5031205;28;20199;-63
2021/04/16 01:29:52;;;;;;;8.00;6.80;;;1.70;99.90;;;;;;5030667;28;20218;-62
2021/04/16 01:32:30;;;;;;;8.37;6.80;;;1.80;99.90;;;;;;5031248;28;20184;-64
2021/04/16 01:34:56;;;;;;;7.80;6.43;;;1.80;99.90;;;;;;5031062;28;20209;-63
2021/04/16 01:37:23;;;;;;;10.47;7.10;;;1.80;99.90;;;;;;5031323;28;20211;-62
2021/04/16 01:39:51;;;;;;;10.43;6.77;;;1.80;99.90;;;;;;5030599;28;20226;-63
2021/04/16 01:42:17;;;;;;;9.17;6.53;;;1.90;99.90;;;;;;5030817;28;20202;-64
2021/04/16 01:44:45;;;;;;;11.87;6.80;;;1.90;99.90;;;;;;5030971;28;20202;-62
2021/04/16 01:47:13;;;;;;;8.13;6.20;;;1.90;99.90;;;;;;5031453;28;20540;-64
2021/04/16 01:49:42;;;;;;;9.23;6.77;;;2.00;99.90;;;;;;5030924;28;20195;-63
2021/04/16 01:52:11;;;;;;;9.67;6.90;;;2.00;99.90;;;;;;5031283;28;20633;-63
2021/04/16 01:54:43;;;;;;;10.23;6.60;;;2.10;99.90;;;;;;5031291;28;20183;-69
2021/04/16 01:57:14;;;;;;;11.80;6.33;;;2.10;99.90;;;;;;5039101;28;20217;-67
2021/04/16 01:59:42;;;;;;;9.83;6.53;;;2.10;99.90;;;;;;5037257;28;20191;-67
2021/04/16 02:02:11;;;;;;;8.70;6.13;;;2.10;99.90;;;;;;5038900;28;20168;-66
2021/04/16 02:04:37;;;;;;;8.93;6.83;;;2.10;99.90;;;;;;5037455;28;20168;-68
2021/04/16 02:07:03;;;;;;;9.13;6.57;;;2.10;99.90;;;;;;5038139;28;20171;-68
2021/04/16 02:09:32;;;;;;;8.17;6.43;;;2.20;99.90;;;;;;5038296;28;20249;-66
2021/04/16 02:11:59;;;;;;;9.40;6.70;;;2.20;99.90;;;;;;5017785;28;20184;-67
2021/04/16 02:14:27;;;;;;;9.93;6.30;;;2.10;99.90;;;;;;5021601;28;20176;-68
2021/04/16 02:16:57;;;;;;;10.40;6.70;;;2.10;99.90;;;;;;5040293;28;20258;-65
2021/04/16 02:19:23;;;;;;;8.40;6.20;;;2.10;99.90;;;;;;5040921;28;20239;-68
2021/04/16 02:21:50;;;;;;;7.43;5.90;;;2.10;99.90;;;;;;5041068;28;20171;-65
2021/04/16 02:24:16;;;;;;;6.63;5.93;;;2.10;99.90;;;;;;5040402;28;20172;-67
2021/04/16 02:26:43;;;;;;;7.90;6.63;;;2.10;99.90;;;;;;5040293;28;20179;-66
2021/04/16 02:29:12;;;;;;;8.40;6.30;;;2.20;99.90;;;;;;5040618;28;20210;-69
2021/04/16 02:31:42;;;;;;;11.33;6.77;;;2.30;99.90;;;;;;5040040;28;20192;-68
2021/04/16 02:34:14;;;;;;;7.90;6.33;;;2.30;99.90;;;;;;5032807;28;20179;-68
2021/04/16 02:36:40;;;;;;;10.60;7.30;;;2.30;99.90;;;;;;5041122;28;20207;-71
2021/04/16 02:39:07;;;;;;;10.73;6.83;;;2.40;99.90;;;;;;5041285;28;20230;-69
2021/04/16 02:41:34;;;;;;;7.43;6.67;;;2.40;99.90;;;;;;5040981;28;20171;-67
2021/04/16 02:44:00;;;;;;;7.60;6.07;;;2.40;99.90;;;;;;5040127;28;20176;-69
2021/04/16 02:46:26;;;;;;;8.83;6.77;;;2.50;99.90;;;;;;5040657;28;20246;-68
2021/04/16 02:48:51;;;;;;;7.30;6.13;;;2.50;99.90;;;;;;5040077;28;20206;-71
2021/04/16 02:51:18;;;;;;;7.80;6.63;;;2.60;99.90;;;;;;5039696;28;20179;-66
2021/04/16 02:53:43;;;;;;;7.50;6.67;;;2.70;99.90;;;;;;5041254;28;20198;-67
2021/04/16 02:56:10;;;;;;;8.80;6.73;;;2.70;99.90;;;;;;5039529;28;20223;-69
2021/04/16 02:58:35;;;;;;;9.37;7.27;;;2.80;99.90;;;;;;5040506;28;20273;-66
2021/04/16 03:01:02;;;;;;;9.27;7.00;;;2.90;99.90;;;;;;5039431;28;20184;-69
2021/04/16 03:03:28;;;;;;;8.07;6.13;;;3.00;99.90;;;;;;5040840;28;20362;-67
2021/04/16 03:05:53;;;;;;;9.70;6.00;;;3.10;99.90;;;;;;5040123;28;20653;-66
2021/04/16 03:08:20;;;;;;;8.47;6.23;;;3.20;99.90;;;;;;5040778;28;20195;-68
2021/04/16 03:10:49;;;;;;;8.00;6.53;;;3.30;99.90;;;;;;5041231;28;20550;-68
2021/04/16 03:13:15;;;;;;;8.90;6.30;;;3.40;99.90;;;;;;5019626;28;20258;-68
2021/04/16 03:15:41;;;;;;;8.53;5.53;;;3.50;99.90;;;;;;5029315;28;20171;-66
2021/04/16 03:18:08;;;;;;;8.57;6.07;;;3.60;99.90;;;;;;5039897;28;20269;-70
2021/04/16 03:20:33;;;;;;;9.87;6.10;;;3.70;99.90;;;;;;5039813;28;20207;-68
2021/04/16 03:22:59;;;;;;;7.70;6.03;;;3.80;99.90;;;;;;5040949;28;20183;-70
2021/04/16 03:25:25;;;;;;;9.53;6.77;;;3.80;99.90;;;;;;5039615;28;20190;-69
2021/04/16 03:27:50;;;;;;;8.50;6.13;;;3.90;99.90;;;;;;5040466;28;20742;-68
2021/04/16 03:30:21;;;;;;;8.67;6.37;;;3.90;99.90;;;;;;5029409;28;20188;-69
2021/04/16 03:32:47;;;;;;;6.90;6.07;;;4.10;99.90;;;;;;5040054;28;20172;-69
2021/04/16 03:35:14;;;;;;;11.20;6.60;;;4.00;99.90;;;;;;5040989;28;20179;-69
2021/04/16 03:37:41;;;;;;;8.43;5.90;;;4.10;99.90;;;;;;5039741;28;20204;-69
2021/04/16 03:40:09;;;;;;;9.53;6.20;;;4.20;99.90;;;;;;5039942;28;20681;-68
2021/04/16 03:42:35;;;;;;;8.20;5.97;;;4.20;99.90;;;;;;5039247;28;20175;-69
2021/04/16 03:45:01;;;;;;;7.73;6.20;;;4.20;99.90;;;;;;5026557;28;20175;-67
2021/04/16 03:47:27;;;;;;;7.60;6.10;;;4.20;99.90;;;;;;5040030;28;20262;-67
2021/04/16 03:49:53;;;;;;;8.43;6.13;;;4.30;99.90;;;;;;5039945;28;20223;-68
2021/04/16 03:52:23;;;;;;;7.40;6.20;;;4.40;99.90;;;;;;5041162;28;20183;-70
2021/04/16 03:54:49;;;;;;;8.13;6.30;;;4.40;99.90;;;;;;5033365;28;20179;-64
2021/04/16 03:57:15;;;;;;;8.77;6.10;;;4.50;99.90;;;;;;5031977;28;20829;-64
2021/04/16 03:59:41;;;;;;;8.37;6.30;;;4.50;99.90;;;;;;5034220;28;20257;-64
2021/04/16 04:02:07;;;;;;;8.87;5.97;;;4.60;99.90;;;;;;5035394;28;20188;-64
2021/04/16 04:04:32;;;;;;;10.47;6.53;;;4.70;99.90;;;;;;5035654;28;20172;-64
2021/04/16 04:06:58;;;;;;;8.23;6.60;;;4.70;99.90;;;;;;5033350;28;20186;-64
2021/04/16 04:09:23;;;;;;;8.80;6.97;;;4.70;99.90;;;;;;5032590;28;20219;-64
2021/04/16 04:11:49;;;;;;;9.43;6.63;;;4.70;99.90;;;;;;5032376;28;20206;-64
2021/04/16 04:14:15;;;;;;;8.80;6.57;;;4.60;99.90;;;;;;5032453;28;20187;-64
2021/04/16 04:17:07;;;;;;;10.30;7.20;;;4.70;99.90;;;;;;5032320;28;20226;-64
2021/04/16 04:19:35;;;;;;;8.20;6.50;;;4.60;99.90;;;;;;4993165;28;20234;-64
2021/04/16 04:22:03;;;;;;;7.53;6.63;;;4.60;99.90;;;;;;5012473;28;20218;-64
2021/04/16 04:24:29;;;;;;;8.27;5.97;;;4.60;99.90;;;;;;5031417;28;20175;-64
2021/04/16 04:26:55;;;;;;;8.07;6.87;;;4.50;99.90;;;;;;5032431;28;20229;-64
2021/04/16 04:29:24;;;;;;;8.03;6.43;;;4.50;99.90;;;;;;5032055;28;20214;-64
2021/04/16 04:31:51;;;;;;;8.73;6.50;;;4.30;99.90;;;;;;5031689;28;20187;-64
2021/04/16 04:34:19;;;;;;;11.33;7.03;;;4.30;99.90;;;;;;5032280;28;20209;-64
2021/04/16 04:36:46;;;;;;;10.63;7.03;;;4.20;99.90;;;;;;5031627;28;20286;-64
2021/04/16 04:39:12;;;;;;;8.70;6.70;;;4.10;99.90;;;;;;5031932;28;20203;-64
2021/04/16 04:41:42;;;;;;;8.77;6.33;;;4.00;99.90;;;;;;5031650;28;20180;-64
2021/04/16 04:44:08;;;;;;;9.13;6.93;;;4.00;99.90;;;;;;5031937;28;20658;-64
2021/04/16 04:46:36;;;;;;;9.10;7.00;;;3.90;99.90;;;;;;5031543;28;20221;-64
2021/04/16 04:49:02;;;;;;;7.97;6.27;;;3.70;99.90;;;;;;5032107;28;20595;-64
2021/04/16 04:51:28;;;;;;;8.17;7.03;;;3.60;99.90;;;;;;5031282;28;20187;-63
2021/04/16 04:53:53;;;;;;;8.97;7.10;;;3.50;99.90;;;;;;5031737;28;20179;-63
2021/04/16 04:56:19;;;;;;;10.17;7.50;;;3.40;99.90;;;;;;5031751;28;20214;-64
2021/04/16 04:58:44;;;;;;;8.80;6.57;;;3.40;99.90;;;;;;5030783;28;20711;-64
2021/04/16 05:01:10;;;;;;;10.27;7.53;;;3.30;99.90;;;;;;5031155;28;20187;-64
2021/04/16 05:03:36;;;;;;;10.00;7.17;;;3.30;99.90;;;;;;5031750;28;20171;-64
2021/04/16 05:06:01;;;;;;;9.13;7.20;;;3.40;99.90;;;;;;5031253;28;20187;-64
2021/04/16 05:08:27;;;;;;;10.03;8.30;;;3.40;99.90;;;;;;5031410;28;20203;-64
2021/04/16 05:10:53;;;;;;;8.40;6.67;;;3.30;99.90;;;;;;5031184;28;20176;-64
2021/04/16 05:13:18;;;;;;;8.90;7.97;;;3.20;99.90;;;;;;5031460;28;20198;-64
2021/04/16 05:15:45;;;;;;;12.93;8.23;;;3.20;99.90;;;;;;5031879;28;20167;-64
2021/04/16 05:18:10;;;;;;;11.80;8.30;;;3.30;99.90;;;;;;5031445;28;20241;-64
2021/04/16 05:20:36;;;;;;;9.43;8.17;;;3.30;99.90;;;;;;5031705;28;20195;-64
2021/04/16 05:23:02;;;;;;;14.30;8.90;;;3.30;99.90;;;;;;5031513;28;20331;-64
2021/04/16 05:25:28;;;;;;;10.83;8.27;;;3.30;99.90;;;;;;5031245;28;20175;-64
2021/04/16 05:27:53;;;;;;;11.23;8.00;;;3.30;99.90;;;;;;5031277;28;20203;-64
2021/04/16 05:30:19;;;;;;;10.03;7.73;;;3.40;99.90;;;;;;5026004;28;20186;-64
2021/04/16 05:32:45;;;;;;;9.23;7.37;;;3.50;99.90;;;;;;5031246;28;20179;-64
2021/04/16 05:35:11;;;;;;;13.10;8.03;;;3.50;99.90;;;;;;5031195;28;20661;-64
2021/04/16 05:37:38;;;;;;;11.30;8.07;;;3.50;99.90;;;;;;5031061;28;20234;-64
2021/04/16 05:40:06;;;;;;;10.17;8.40;;;3.70;99.90;;;;;;5029757;28;20191;-64
2021/04/16 05:42:32;;;;;;;8.87;7.60;;;3.80;99.90;;;;;;5022266;28;20637;-64
2021/04/16 05:45:00;;;;;;;12.00;7.77;;;3.80;99.90;;;;;;5029209;28;20195;-64
2021/04/16 05:47:27;;;;;;;9.57;7.10;;;4.00;99.90;;;;;;5031480;28;20192;-64
2021/04/16 05:49:52;;;;;;;8.47;7.20;;;4.20;99.90;;;;;;5034556;28;20688;-63
2021/04/16 05:52:18;;;;;;;7.87;6.80;;;4.40;99.90;;;;;;5035098;28;20207;-65
2021/04/16 05:54:44;;;;;;;9.77;7.63;;;4.50;99.90;;;;;;5034613;28;20519;-64
2021/04/16 05:57:09;;;;;;;8.67;6.83;;;4.60;99.90;;;;;;5032734;28;20207;-64
2021/04/16 05:59:35;;;;;;;9.67;7.03;;;4.70;99.90;;;;;;5033997;28;20195;-64
2021/04/16 06:02:01;;;;;;;8.53;7.03;;;4.70;99.90;;;;;;5018851;28;20185;-63
2021/04/16 06:04:28;;;;;;;8.33;6.87;;;4.80;99.90;;;;;;5016960;28;20168;-64
2021/04/16 06:06:53;;;;;;;9.97;7.07;;;4.80;99.90;;;;;;5034452;28;20205;-64
2021/04/16 06:09:19;;;;;;;9.50;7.57;;;4.80;99.90;;;;;;5034627;28;20198;-64
2021/04/16 06:11:45;;;;;;;7.53;6.20;;;4.90;99.90;;;;;;5034429;28;20176;-64
2021/04/16 06:14:10;;;;;;;8.87;7.07;;;5.10;99.90;;;;;;5034432;28;20617;-64
2021/04/16 06:16:37;;;;;;;8.30;6.60;;;5.40;99.90;;;;;;5034603;28;20222;-65
2021/04/16 06:19:04;;;;;;;8.53;6.17;;;5.60;99.90;;;;;;5033971;28;20210;-64
2021/04/16 06:21:30;;;;;;;8.03;6.67;;;5.80;99.90;;;;;;5034322;28;20254;-64
2021/04/16 06:23:56;;;;;;;8.50;6.40;;;6.00;99.90;;;;;;5034195;28;20187;-64
2021/04/16 06:26:23;;;;;;;7.67;6.43;;;6.20;99.90;;;;;;5034177;28;20245;-64
2021/04/16 06:28:48;;;;;;;11.23;7.13;;;6.30;99.90;;;;;;5033911;28;20326;-64
2021/04/16 06:31:17;;;;;;;7.80;6.33;;;6.40;99.90;;;;;;5033687;28;20266;-64
2021/04/16 06:33:43;;;;;;;12.30;8.67;;;6.50;99.90;;;;;;5034164;28;20266;-64
2021/04/16 06:36:11;;;;;;;10.20;7.53;;;6.70;99.90;;;;;;5033726;28;20340;-64
2021/04/16 06:38:40;;;;;;;10.03;7.50;;;6.90;99.90;;;;;;5033910;28;20278;-64
2021/04/16 06:41:17;;;;;;;9.70;6.67;;;7.10;99.90;;;;;;5033429;28;20207;-63
2021/04/16 06:43:48;;;;;;;9.93;7.70;;;7.30;99.90;;;;;;5034056;28;20207;-64
2021/04/16 06:46:45;;;;;;;9.43;6.50;;;7.30;99.90;;;;;;5033838;28;20194;-64
2021/04/16 06:49:20;;;;;;;8.57;6.13;;;7.40;99.90;;;;;;5033655;28;20201;-64
2021/04/16 06:52:05;;;;;;;9.37;6.53;;;7.50;99.90;;;;;;5033570;28;20194;-64
2021/04/16 06:54:45;;;;;;;12.33;6.73;;;7.70;99.90;;;;;;5033655;28;20551;-64
2021/04/16 06:57:28;;;;;;;7.93;6.60;;;7.90;99.90;;;;;;5033524;28;20562;-64
2021/04/16 07:00:12;;;;;;;9.67;6.30;;;8.00;99.90;;;;;;5032252;28;20642;-65
2021/04/16 07:02:44;;;;;;;6.87;5.50;;;7.90;99.90;;;;;;5033533;28;20209;-64
2021/04/16 07:05:25;;;;;;;8.33;6.50;;;7.90;99.90;;;;;;5033735;28;20183;-64
2021/04/16 07:07:51;;;;;;;10.47;6.33;;;8.10;99.90;;;;;;5033485;28;20684;-64
2021/04/16 07:10:26;;;;;;;6.97;6.07;;;8.20;99.90;;;;;;5033580;28;20266;-65
2021/04/16 07:12:53;;;;;;;13.27;6.83;;;8.30;99.90;;;;;;5033324;28;20179;-65
2021/04/16 07:15:32;;;;;;;10.20;6.10;;;8.30;99.90;;;;;;5033631;28;20187;-64
2021/04/16 07:17:58;;;;;;;9.33;6.10;;;8.30;99.90;;;;;;5032947;28;20238;-64
2021/04/16 07:20:24;;;;;;;9.20;6.80;;;8.30;99.90;;;;;;5033300;28;20215;-63
2021/04/16 07:22:52;;;;;;;9.83;6.60;;;8.30;99.90;;;;;;5033232;28;20206;-64
2021/04/16 07:25:24;;;;;;;8.17;6.10;;;8.40;99.90;;;;;;5033207;28;20203;-64
2021/04/16 07:27:58;;;;;;;12.17;6.63;;;8.20;99.90;;;;;;5033098;28;20186;-64
2021/04/16 07:30:27;;;;;;;8.80;6.43;;;8.30;99.90;;;;;;5032829;28;20668;-64
2021/04/16 07:32:52;;;;;;;11.50;6.87;;;8.40;99.90;;;;;;5033042;28;20186;-65
2021/04/16 07:35:29;;;;;;;11.10;6.70;;;8.50;99.90;;;;;;5033019;28;20175;-64
2021/04/16 07:38:16;;;;;;;10.30;6.63;;;8.80;99.90;;;;;;5032959;28;20293;-65
2021/04/16 07:40:45;;;;;;;8.43;6.27;;;9.00;99.90;;;;;;5032464;28;20529;-63
2021/04/16 07:43:46;;;;;;;7.10;6.10;;;8.90;99.90;;;;;;5032956;28;20896;-64
2021/04/16 07:46:41;;;;;;;7.23;5.87;;;9.10;99.90;;;;;;5032609;28;20174;-64
2021/04/16 07:49:13;;;;;;;10.33;7.00;;;9.20;99.90;;;;;;5015710;28;20214;-64
2021/04/16 07:51:40;;;;;;;8.60;6.27;;;9.40;99.90;;;;;;5032314;28;20183;-65
2021/04/16 07:54:25;;;;;;;7.53;6.40;;;9.60;99.90;;;;;;5020253;28;20551;-65
2021/04/16 07:57:07;;;;;;;8.47;5.87;;;9.80;99.90;;;;;;5032620;28;20283;-64
2021/04/16 08:00:00;;;;;;;8.67;5.60;;;9.80;99.90;;;;;;5032482;28;20222;-65
2021/04/16 08:02:35;;;;;;;8.10;5.77;;;10.10;99.90;;;;;;5032557;28;20172;-65
2021/04/16 08:05:36;;;;;;;8.20;5.93;;;10.20;99.90;;;;;;5032335;28;20202;-64
2021/04/16 08:08:26;;;;;;;9.03;5.60;;;10.30;99.90;;;;;;4990063;28;20736;-65
2021/04/16 08:11:00;;;;;;;8.13;5.23;;;10.50;99.90;;;;;;5011909;28;20175;-64
2021/04/16 08:13:32;;;;;;;6.33;5.30;;;10.60;99.90;;;;;;5014057;28;20251;-64
2021/04/16 08:16:30;;;;;;;5.67;4.97;;;10.90;99.90;;;;;;5013115;28;20172;-65
2021/04/16 08:18:58;;;;;;;6.27;4.83;;;10.90;99.90;;;;;;5017140;28;20219;-65
2021/04/16 08:21:25;;;;;;;10.13;4.87;;;11.00;99.90;;;;;;5031784;28;20210;-64
2021/04/16 08:23:56;;;;;;;8.73;5.70;;;10.80;99.90;;;;;;5032167;28;20167;-63
2021/04/16 08:26:29;;;;;;;8.57;5.23;;;11.10;99.90;;;;;;5031916;28;20195;-65
2021/04/16 08:29:04;;;;;;;7.07;4.90;;;11.30;99.90;;;;;;5031900;28;20195;-65
2021/04/16 08:31:40;;;;;;;7.40;4.43;;;11.30;99.90;;;;;;5031827;28;20225;-64
2021/04/16 08:34:12;;;;;;;6.97;5.17;;;11.30;99.90;;;;;;5032030;28;20203;-65
2021/04/16 08:36:40;;;;;;;6.53;4.90;;;11.40;99.90;;;;;;5031542;28;20688;-64
2021/04/16 08:39:29;;;;;;;9.07;4.90;;;11.30;99.90;;;;;;5031924;28;20225;-64
2021/04/16 08:42:01;;;;;;;5.87;4.37;;;11.30;99.90;;;;;;5031485;28;20259;-65
2021/04/16 08:44:31;;;;;;;6.87;4.63;;;11.20;99.90;;;;;;5032245;28;20176;-65
2021/04/16 08:46:58;;;;;;;6.93;4.27;;;11.20;99.90;;;;;;5031349;28;20649;-65
2021/04/16 08:49:28;;;;;;;6.03;4.53;;;11.40;99.90;;;;;;5031599;28;20206;-64
2021/04/16 08:52:37;;;;;;;5.97;3.97;;;11.50;99.90;;;;;;5031362;28;20251;-65
2021/04/16 08:55:31;;;;;;;4.57;3.73;;;11.60;99.90;;;;;;4987089;28;20199;-65
2021/04/16 08:58:18;;;;;;;5.63;3.87;;;11.50;99.90;;;;;;5002275;28;20250;-64
2021/04/16 09:00:50;;;;;;;5.70;4.03;;;11.30;99.90;;;;;;5030926;28;20245;-65
2021/04/16 09:03:19;;;;;;;4.47;4.00;;;11.10;99.90;;;;;;5031636;28;20301;-65
2021/04/16 09:05:58;;;;;;;4.23;3.80;;;11.20;99.90;;;;;;5031323;28;20183;-65
2021/04/16 09:08:37;;;;;;;6.07;3.93;;;11.40;99.90;;;;;;5031606;28;20680;-65
2021/04/16 09:11:05;;;;;;;9.23;4.70;;;11.50;99.90;;;;;;5031406;28;20182;-64
2021/04/16 09:13:36;;;;;;;4.60;4.10;;;11.50;99.90;;;;;;5031247;28;20182;-65
2021/04/16 09:16:17;;;;;;;5.10;4.20;;;11.40;99.90;;;;;;5031321;28;20195;-65
2021/04/16 09:18:50;;;;;;;8.83;4.53;;;11.20;99.90;;;;;;5053995;22;20284;-63
2021/04/16 09:21:30;;;;;;;5.80;4.00;;;11.30;99.90;;;;;;5030851;28;20170;-65
2021/04/16 09:24:00;;;;;;;6.67;3.87;;;11.40;99.90;;;;;;5011672;28;20167;-64
2021/04/16 09:26:46;;;;;;;6.33;4.20;;;11.70;99.90;;;;;;5013637;28;20652;-65
2021/04/16 09:29:27;;;;;;;7.93;4.77;;;12.20;99.90;;;;;;5051193;28;20671;-65
2021/04/16 09:32:02;;;;;;;10.93;6.53;;;12.60;99.90;;;;;;5044343;28;20236;-65
2021/04/16 09:34:43;;;;;;;6.77;4.60;;;12.90;99.90;;;;;;5051182;28;20700;-66
2021/04/16 09:37:24;;;;;;;5.27;3.20;;;12.90;99.90;;;;;;5038409;28;20293;-63
2021/04/16 09:40:14;;;;;;;5.87;2.77;;;12.90;99.90;;;;;;5030814;28;20191;-64
2021/04/16 09:42:47;;;;;;;5.93;3.70;;;12.70;99.90;;;;;;5046940;28;20242;-65
2021/04/16 09:45:28;;;;;;;5.17;3.30;;;12.60;99.90;;;;;;5048596;28;20651;-65
2021/04/16 09:48:00;;;;;;;4.10;3.60;;;12.60;99.90;;;;;;5031441;28;20175;-65
2021/04/16 09:50:31;;;;;;;5.40;3.53;;;12.50;99.90;;;;;;5033994;28;20186;-65
2021/04/16 09:53:19;;;;;;;9.60;3.50;;;12.70;99.90;;;;;;5041910;28;20191;-65
2021/04/16 09:55:52;;;;;;;4.13;3.00;;;12.90;99.90;;;;;;5040579;28;20717;-65
2021/04/16 09:58:32;;;;;;;3.93;3.03;;;12.80;99.90;;;;;;5050909;28;20688;-64
2021/04/16 10:00:58;;;;;;;3.77;2.80;;;12.90;99.90;;;;;;5044008;28;20217;-66
2021/04/16 10:03:49;;;;;;;4.47;3.17;;;13.30;99.90;;;;;;5031161;28;20543;-65
2021/04/16 10:06:34;;;;;;;4.53;3.20;;;13.30;99.90;;;;;;5038813;28;20570;-65
2021/04/16 10:09:09;;;;;;;3.97;3.57;;;13.30;99.90;;;;;;5031517;28;20432;-64
2021/04/16 10:11:36;;;;;;;3.07;2.77;;;13.90;99.90;;;;;;5040619;28;20205;-65
2021/04/16 10:14:13;;;;;;;5.07;3.03;;;14.60;99.90;;;;;;5050621;28;20544;-64
2021/04/16 10:16:39;;;;;;;3.40;3.10;;;14.50;99.90;;;;;;5050879;28;20277;-65
2021/04/16 10:19:14;;;;;;;5.33;3.53;;;13.90;99.90;;;;;;5050029;28;20329;-65
2021/04/16 10:21:42;;;;;;;5.73;3.67;;;13.60;99.90;;;;;;5050727;28;20535;-66
2021/04/16 10:25:29;;;;;;;4.50;3.80;;;13.60;99.90;;;;;;5050862;28;20171;-67
2021/04/16 12:39:27;;;;;;;3.87;2.07;;;14.60;97.00;;;;;;5032227;28;20234;-66
2021/04/16 12:41:57;;;;;;;2.97;2.00;;;14.70;95.80;;;;;;5031807;28;20195;-65
2021/04/16 12:44:31;;;;;;;2.77;2.37;;;14.80;92.80;;;;;;5032149;28;20179;-65
2021/04/16 12:47:14;;;;;;;2.30;2.10;;;15.30;94.30;;;;;;5045989;28;20200;-65
2021/04/16 12:49:41;;;;;;;2.50;2.20;;;16.10;94.00;;;;;;5052001;28;20285;-64
2021/04/16 12:52:07;;;;;;;3.20;2.10;;;15.80;90.90;;;;;;5036201;28;20703;-64
2021/04/16 12:54:38;;;;;;;2.97;2.40;;;15.10;90.80;;;;;;5031878;28;20183;-65
2021/04/16 12:57:05;;;;;;;2.87;2.50;;;15.00;92.30;;;;;;5032103;28;20691;-65
2021/04/16 12:59:34;;;;;;;4.03;2.37;;;14.80;91.60;;;;;;5034252;28;21701;-65
2021/04/16 13:01:59;;;;;;;2.77;2.50;;;14.70;92.70;;;;;;5051278;28;20175;-65
2021/04/16 13:04:26;;;;;;;3.80;2.77;;;14.60;92.80;;;;;;5049910;28;20198;-65
2021/04/16 13:06:58;;;;;;;3.20;2.33;;;14.60;92.00;;;;;;5051308;28;20698;-66
2021/04/16 13:09:23;;;;;;;5.63;2.10;;;15.00;92.40;;;;;;5050760;28;20190;-65
2021/04/16 13:11:50;;;;;;;4.63;2.17;;;15.20;92.20;;;;;;5031495;28;20190;-65
2021/04/16 13:14:17;;;;;;;2.83;1.90;;;15.30;90.20;;;;;;5031472;28;20179;-65
2021/04/16 13:16:42;;;;;;;4.70;2.23;;;15.20;91.80;;;;;;5038764;28;20671;-66
2021/04/16 13:19:19;;;;;;;2.63;2.07;;;15.10;91.90;;;;;;5030970;28;20221;-65
2021/04/16 13:21:45;;;;;;;2.53;2.10;;;14.80;91.50;;;;;;5049295;28;20178;-64
2021/04/16 13:24:11;;;;;;;2.33;2.00;;;14.30;89.20;;;;;;5048326;28;20182;-65
2021/04/16 13:26:38;;;;;;;5.03;2.50;;;14.10;90.70;;;;;;5031393;28;20664;-65
2021/04/16 13:29:04;;;;;;;3.70;2.30;;;14.30;91.90;;;;;;5038399;28;20221;-64
2021/04/16 13:31:32;;;;;;;3.60;2.20;;;14.60;91.80;;;;;;5051024;28;20276;-64
2021/04/16 13:33:59;;;;;;;3.47;2.20;;;15.20;91.60;;;;;;5044581;28;20187;-63
2021/04/16 13:36:29;;;;;;;4.80;2.17;;;15.70;90.60;;;;;;5031288;28;20615;-63
2021/04/16 13:38:55;;;;;;;5.47;2.00;;;16.20;91.70;;;;;;5035930;28;20213;-63
2021/04/16 13:41:21;;;;;;;2.33;2.00;;;15.70;86.30;;;;;;5050299;28;20228;-64
2021/04/16 13:43:50;;;;;;;4.27;2.10;;;15.40;91.50;;;;;;5047479;28;20180;-64
2021/04/16 13:46:19;;;;;;;2.10;2.00;;;14.90;86.40;;;;;;5031323;28;20178;-64
2021/04/16 13:48:46;;;;;;;2.00;1.80;;;14.70;90.20;;;;;;5033398;28;20218;-64
2021/04/16 13:51:14;;;;;;;2.47;2.13;;;14.90;89.60;;;;;;5050751;28;20228;-64
2021/04/16 13:53:40;;;;;;;3.57;2.57;;;15.30;88.60;;;;;;5036471;28;20194;-64
2021/04/16 13:56:06;;;;;;;4.77;2.23;;;15.70;89.90;;;;;;5031001;28;20198;-64
2021/04/16 13:58:31;;;;;;;2.20;1.80;;;16.50;90.40;;;;;;5043248;28;20211;-64
2021/04/16 14:00:57;;;;;;;3.20;2.07;;;17.00;90.60;;;;;;5050407;28;20175;-64
2021/04/16 14:03:35;;;;;;;2.70;2.20;;;17.00;88.60;;;;;;5043379;28;20186;-64
2021/04/16 14:06:06;;;;;;;1.73;1.53;;;17.10;87.50;;;;;;5011863;28;20201;-64
2021/04/16 14:08:42;;;;;;;5.00;1.90;;;17.00;83.70;;;;;;5043303;28;20343;-63
2021/04/16 14:11:08;;;;;;;2.43;1.90;;;16.70;85.10;;;;;;5054145;28;20240;-63
2021/04/16 14:13:35;;;;;;;3.80;2.27;;;16.20;83.90;;;;;;5043642;28;20183;-64
2021/04/16 14:16:05;;;;;;;2.20;2.00;;;15.70;83.60;;;;;;5034568;28;20261;-64
2021/04/16 14:18:47;;;;;;;3.83;2.10;;;15.70;86.10;;;;;;5043810;28;20289;-64
2021/04/16 14:21:17;;;;;;;3.37;2.10;;;16.00;84.10;;;;;;5044224;28;20187;-64
2021/04/16 14:23:43;;;;;;;5.23;2.23;;;15.90;83.80;;;;;;5034466;28;20171;-64
2021/04/16 14:26:09;;;;;;;2.10;1.90;;;15.70;87.30;;;;;;5042529;28;20641;-65
2021/04/16 14:28:36;;;;;;;3.83;1.90;;;16.00;88.50;;;;;;5054331;28;20593;-64
2021/04/16 14:31:01;;;;;;;2.60;2.13;;;16.30;86.40;;;;;;5046455;28;20176;-64
2021/04/16 14:33:30;;;;;;;2.77;2.17;;;16.10;86.80;;;;;;5034462;28;20171;-65
2021/04/16 14:35:56;;;;;;;3.03;2.10;;;16.30;90.20;;;;;;5039429;28;20194;-64
2021/04/16 14:38:23;;;;;;;3.97;2.20;;;16.40;86.20;;;;;;5053947;28;20206;-63
2021/04/16 14:40:49;;;;;;;2.87;2.47;;;16.10;85.20;;;;;;5051739;28;20179;-65
2021/04/16 14:43:16;;;;;;;2.70;2.50;;;15.80;88.00;;;;;;5054165;28;20641;-64
2021/04/16 14:45:47;;;;;;;2.80;2.20;;;15.50;87.20;;;;;;5051825;28;20538;-64
2021/04/16 14:48:13;;;;;;;2.97;2.60;;;15.60;85.80;;;;;;5034364;28;20199;-64
2021/04/16 14:50:40;;;;;;;2.50;2.30;;;15.50;85.40;;;;;;5054087;28;20171;-64
2021/04/16 14:53:17;;;;;;;2.83;2.30;;;15.50;90.10;;;;;;5053443;28;20174;-64
2021/04/16 14:55:43;;;;;;;3.30;2.73;;;15.60;90.40;;;;;;5052653;28;20639;-64
2021/04/16 14:58:12;;;;;;;2.80;2.47;;;15.50;87.60;;;;;;5053563;28;20221;-64
2021/04/16 15:00:38;;;;;;;3.63;2.50;;;15.60;90.70;;;;;;5034037;28;20182;-66
2021/04/16 15:03:05;;;;;;;5.30;2.60;;;15.70;87.90;;;;;;5033434;28;20171;-64
2021/04/16 15:05:31;;;;;;;3.20;2.60;;;15.30;88.30;;;;;;5033392;28;20597;-63
2021/04/16 15:07:57;;;;;;;2.83;2.30;;;15.20;89.10;;;;;;5035574;28;20266;-64
2021/04/16 15:10:27;;;;;;;2.80;2.30;;;15.00;90.00;;;;;;5037119;28;20687;-64
2021/04/16 15:12:53;;;;;;;2.70;2.30;;;15.30;90.00;;;;;;5033382;28;20636;-64
2021/04/16 15:15:35;;;;;;;2.93;2.50;;;16.00;88.00;;;;;;5048018;28;20181;-64
2021/04/16 15:18:02;;;;;;;3.13;2.83;;;16.50;86.50;;;;;;5053095;28;20722;-63